In Rescue
 
Open Full Screen Window  High Contrast Mode
Wind Gusting 19 knots
16
May 13, 2021 11:15 AM CDT
Weather Information
Wind Direction
  180 °
Wind Speed
  16 kt (18 mph)
Wind Gust
  19 kt (22 mph)
Altimeter
30.21 in
Visibility
10 SM
Temperature
19° C
66° F
Dewpoint
-03° C
27° F
Humidity
22%
1hr Rain Fall
00.00 in.
24hr Rain Fall
00.00 in.
Sky Condition
Clear
VFR

METAR KFSE 131615Z AUTO 18016G19KT 10SM CLR 19/M03 A3021 RMK AO2

FAA Disclaimer: The data displayed is for advisory purposes only and is not to be used for flight planning or operations.